Mississippi Star — 9HA2441 — position and weather

sailwx.info

Track history (hours):
 
Tides and Currents Weather Stations Pressure Air Temp Water Temp Dewpoint Dewpoint Depression Visibility Wind Speed Wind Dir Waves Ship Positions

Mississippi Star

Last reported at 2015-Sep-05 04:33 UTC. Time now 2015-Sep-05 05:44 UTC.
Position N 51°49' E 001°30'.

Length 128 m; draft 8.6 m.

Type: Ship. MMSI: 248621000.

Date/timePositionNaut miles runAvg speedWind from/ knotsBaromVisibWave heightAir tempDewpointWater temp
2015-Sep-05 04:33N 51°49' E 001°30'0 0.1
2015-Sep-05 03:33N 51°49' E 001°29'0 0.0
2015-Sep-05 02:33N 51°49' E 001°29'0 0.0
2015-Sep-05 01:33N 51°49' E 001°29'0 0.0
2015-Sep-05 00:30N 51°49' E 001°29'0 0.0
2015-Sep-04 23:33N 51°49' E 001°29'0 0.1
2015-Sep-04 22:33N 51°49' E 001°29'0 0.1
2015-Sep-04 21:33N 51°49' E 001°30'0 0.0
2015-Sep-04 20:33N 51°49' E 001°29'0 0.0
2015-Sep-04 19:33N 51°49' E 001°29'0 0.0
2015-Sep-04 18:33N 51°49' E 001°29'0 0.0
2015-Sep-04 17:33N 51°49' E 001°29'0 0.0
2015-Sep-04 16:33N 51°49' E 001°29'0 0.2
2015-Sep-04 15:33N 51°49' E 001°29'0 0.1
2015-Sep-04 14:33N 51°49' E 001°29'0 0.0
2015-Sep-04 13:33N 51°49' E 001°29'0 0.0
2015-Sep-04 12:33N 51°49' E 001°29'0 0.0
2015-Sep-04 11:33N 51°49' E 001°29'0 0.1
2015-Sep-04 10:33N 51°49' E 001°29'0 0.1
2015-Sep-04 09:33N 51°49' E 001°30'0 0.1
2015-Sep-04 08:33N 51°49' E 001°30'0 0.0
2015-Sep-04 07:33N 51°49' E 001°30'5 5.2
2015-Sep-04 06:33N 51°49' E 001°38'10 9.7
2015-Sep-04 05:33N 51°58' E 001°46'10 9.6
2015-Sep-04 04:33N 52°05' E 001°57'1110.0
2015-Sep-04 03:27N 52°13' E 002°09'436 9.4
2015-Sep-02 05:14N 57°48' E 010°15'811.2
2015-Sep-02 04:33N 57°48' E 010°30'1111.4
2015-Sep-02 03:33N 57°49' E 010°51'1111.0
2015-Sep-02 02:33N 57°45' E 011°11'1110.6
2015-Sep-02 01:33N 57°39' E 011°27'9 8.5
2015-Sep-02 00:33N 57°39' E 011°43'6 5.6
2015-Sep-01 23:33N 57°41' E 011°52'0 0.0
2015-Sep-01 22:31N 57°41' E 011°52'0 0.0
2015-Sep-01 21:31N 57°41' E 011°52'0 0.0
2015-Sep-01 20:31N 57°41' E 011°52'0 0.0
2015-Sep-01 19:31N 57°41' E 011°52'0 0.0
2015-Sep-01 18:31N 57°41' E 011°52'0 0.0
2015-Sep-01 17:31N 57°41' E 011°52'0 0.0
2015-Sep-01 16:31N 57°41' E 011°52'0 0.0
2015-Sep-01 15:31N 57°41' E 011°52'0 0.0
2015-Sep-01 14:31N 57°41' E 011°52'0 0.0
2015-Sep-01 13:31N 57°41' E 011°52'0 0.0
2015-Sep-01 12:31N 57°41' E 011°52'0 0.0
2015-Sep-01 11:31N 57°41' E 011°52'0 0.0
2015-Sep-01 10:31N 57°41' E 011°52'0 0.0
2015-Sep-01 09:31N 57°41' E 011°52'0 0.0
2015-Sep-01 08:31N 57°41' E 011°52'0 0.0
2015-Sep-01 07:31N 57°41' E 011°52'0 0.0
2015-Sep-01 06:31N 57°41' E 011°52'0 0.0
2015-Sep-01 05:31N 57°41' E 011°52'0 0.0
2015-Sep-01 04:31N 57°41' E 011°52'0 0.0
2015-Sep-01 03:31N 57°41' E 011°52'0 0.0
2015-Sep-01 02:31N 57°41' E 011°52'0 0.0
2015-Sep-01 01:31N 57°41' E 011°52'0 0.0
2015-Sep-01 00:31N 57°41' E 011°52'0 0.0
2015-Aug-31 23:31N 57°41' E 011°52'0 0.0
2015-Aug-31 22:31N 57°41' E 011°52'0 0.2
2015-Aug-31 21:34N 57°41' E 011°52'8 8.0
2015-Aug-31 20:33N 57°36' E 011°40'4 3.6
2015-Aug-31 19:33N 57°33' E 011°38'0 0.0
2015-Aug-31 18:33N 57°33' E 011°38'0 0.0
2015-Aug-31 17:33N 57°33' E 011°38'0 0.0
2015-Aug-31 16:33N 57°33' E 011°38'0 0.0
2015-Aug-31 15:33N 57°33' E 011°38'0 0.0
2015-Aug-31 14:33N 57°33' E 011°39'0 0.0
2015-Aug-31 13:33N 57°33' E 011°39'0 0.0
2015-Aug-31 12:33N 57°33' E 011°39'0 0.0
2015-Aug-31 11:33N 57°33' E 011°39'0 0.0
2015-Aug-31 10:33N 57°33' E 011°39'0 0.0
2015-Aug-31 09:33N 57°33' E 011°39'0 0.0
2015-Aug-31 08:33N 57°33' E 011°39'0 0.0
2015-Aug-31 07:33N 57°33' E 011°39'0 0.0
2015-Aug-31 06:32N 57°33' E 011°39'0 0.0
2015-Aug-31 05:33N 57°33' E 011°39'0 0.0
2015-Aug-31 04:33N 57°33' E 011°39'0 0.0
2015-Aug-31 03:32N 57°33' E 011°39'0 0.0
2015-Aug-31 02:33N 57°33' E 011°39'0 0.0
2015-Aug-31 01:33N 57°33' E 011°39'0 0.0
2015-Aug-31 00:33N 57°33' E 011°39'0 0.0
2015-Aug-30 23:32N 57°33' E 011°39'0 0.0
2015-Aug-30 22:32N 57°33' E 011°39'0 0.0
2015-Aug-30 21:32N 57°33' E 011°39'0 0.0
2015-Aug-30 20:32N 57°33' E 011°39'0 0.0
2015-Aug-30 19:33N 57°33' E 011°39'0 0.0
2015-Aug-30 18:33N 57°33' E 011°39'0 0.0
2015-Aug-30 17:33N 57°33' E 011°39'0 0.0
2015-Aug-30 16:32N 57°33' E 011°39'0 0.0
2015-Aug-30 15:33N 57°33' E 011°39'0 0.0
2015-Aug-30 14:32N 57°33' E 011°39'0 0.0
2015-Aug-30 13:33N 57°33' E 011°39'0 0.0
2015-Aug-30 12:32N 57°33' E 011°39'0 0.0
2015-Aug-30 11:32N 57°33' E 011°39'0 0.0
2015-Aug-30 10:32N 57°33' E 011°39'0 0.0
2015-Aug-30 09:32N 57°33' E 011°39'0 0.0
2015-Aug-30 08:32N 57°33' E 011°39'0 0.0
2015-Aug-30 07:32N 57°33' E 011°39'0 0.0
2015-Aug-30 06:32N 57°33' E 011°39'0 0.0
2015-Aug-30 05:32N 57°33' E 011°39'0 0.0
2015-Aug-30 04:32N 57°33' E 011°39'0 0.0
2015-Aug-30 03:32N 57°33' E 011°39'1 1.1
2015-Aug-30 02:33N 57°34' E 011°37'1212.2
2015-Aug-30 01:33N 57°42' E 011°21'1312.9
2015-Aug-30 00:34N 57°51' E 011°04'1212.0
2015-Aug-29 23:33N 58°02' E 010°56'1211.6
2015-Aug-29 22:33N 58°13' E 010°50'1111.5
2015-Aug-29 21:33N 58°24' E 010°44'1111.1
2015-Aug-29 20:33N 58°35' E 010°38'1010.3
2015-Aug-29 19:33N 58°45' E 010°32'1110.5
2015-Aug-29 18:33N 58°55' E 010°34'1010.3
2015-Aug-29 17:34N 59°06' E 010°33'1111.0
2015-Aug-29 16:33N 59°17' E 010°34'3 3.2
2015-Aug-29 15:31N 59°20' E 010°31'0 0.0
2015-Aug-29 14:31N 59°20' E 010°31'0 0.0
2015-Aug-29 13:28N 59°20' E 010°31'0 0.0
2015-Aug-29 12:31N 59°20' E 010°31'0 0.0
2015-Aug-29 11:31N 59°20' E 010°31'0 0.0
2015-Aug-29 10:31N 59°20' E 010°31'0 0.0
2015-Aug-29 09:31N 59°20' E 010°31'0 0.0
2015-Aug-29 08:31N 59°20' E 010°31'0 0.0
2015-Aug-29 07:31N 59°20' E 010°31'0 0.0
2015-Aug-29 06:31N 59°20' E 010°31'0 0.0
2015-Aug-29 05:31N 59°20' E 010°31'0 0.0
2015-Aug-29 04:31N 59°20' E 010°31'0 0.0
2015-Aug-29 03:31N 59°20' E 010°31'0 0.0
2015-Aug-29 02:31N 59°20' E 010°31'0 0.0
2015-Aug-29 01:31N 59°20' E 010°31'0 0.0
2015-Aug-29 00:31N 59°20' E 010°31'0 0.0
2015-Aug-28 23:31N 59°20' E 010°31'0 0.0
2015-Aug-28 22:31N 59°20' E 010°31'0 0.0
2015-Aug-28 21:31N 59°20' E 010°31'0 0.0
2015-Aug-28 20:31N 59°20' E 010°31'0 0.0
2015-Aug-28 19:28N 59°20' E 010°31'0 0.5
2015-Aug-28 18:33N 59°20' E 010°31'0 0.0
2015-Aug-28 17:33N 59°20' E 010°31'0 0.0
2015-Aug-28 16:33N 59°20' E 010°31'0 0.0
2015-Aug-28 15:33N 59°20' E 010°31'0 0.0
2015-Aug-28 14:33N 59°20' E 010°31'0 0.0
2015-Aug-28 13:33N 59°20' E 010°31'0 0.0
2015-Aug-28 12:33N 59°20' E 010°31'0 0.0
2015-Aug-28 11:33N 59°20' E 010°31'0 0.0
2015-Aug-28 10:33N 59°20' E 010°31'0 0.0
2015-Aug-28 09:33N 59°20' E 010°31'0 0.0
2015-Aug-28 08:33N 59°20' E 010°31'0 0.0
2015-Aug-28 07:33N 59°20' E 010°31'0 0.0
2015-Aug-28 06:33N 59°20' E 010°31'0 0.0
2015-Aug-28 05:33N 59°20' E 010°31'0 0.1
2015-Aug-28 04:33N 59°20' E 010°31'0 0.0
2015-Aug-28 03:33N 59°20' E 010°31'0 0.0
2015-Aug-28 02:33N 59°20' E 010°31'0 0.0
2015-Aug-28 01:33N 59°20' E 010°31'0 0.0
2015-Aug-28 00:33N 59°20' E 010°31'0 0.0
2015-Aug-27 23:33N 59°20' E 010°31'1 0.6
2015-Aug-27 22:34N 59°20' E 010°32'1111.0
2015-Aug-27 21:34N 59°09' E 010°37'1111.5
2015-Aug-27 20:34N 58°58' E 010°33'1212.0
2015-Aug-27 19:31N 58°48' E 010°18'5211.6
2015-Aug-27 15:03N 58°06' E 009°21'612.2
2015-Aug-27 14:33N 58°01' E 009°14'3712.3
2015-Aug-27 11:34N 57°31' E 008°34'1312.4
2015-Aug-27 10:32N 57°20' E 008°21'  
Track history (hours):
 
Tides and Currents Weather Stations Pressure Air Temp Water Temp Dewpoint Dewpoint Depression Visibility Wind Speed Wind Dir Waves Ship Positions

Mississippi Star

Last reported at 2015-Sep-05 04:33 UTC. Time now 2015-Sep-05 05:44 UTC.
Position N 51°49' E 001°30'.

Length 128 m; draft 8.6 m.

Type: Ship. MMSI: 248621000.

Date/timePositionNaut miles runAvg speedWind from/ knotsBaromVisibWave heightAir tempDewpointWater temp
2015-Sep-05 04:33N 51°49' E 001°30'0 0.1
2015-Sep-05 03:33N 51°49' E 001°29'0 0.0
2015-Sep-05 02:33N 51°49' E 001°29'0 0.0
2015-Sep-05 01:33N 51°49' E 001°29'0 0.0
2015-Sep-05 00:30N 51°49' E 001°29'0 0.0
2015-Sep-04 23:33N 51°49' E 001°29'0 0.1
2015-Sep-04 22:33N 51°49' E 001°29'0 0.1
2015-Sep-04 21:33N 51°49' E 001°30'0 0.0
2015-Sep-04 20:33N 51°49' E 001°29'0 0.0
2015-Sep-04 19:33N 51°49' E 001°29'0 0.0
2015-Sep-04 18:33N 51°49' E 001°29'0 0.0
2015-Sep-04 17:33N 51°49' E 001°29'0 0.0
2015-Sep-04 16:33N 51°49' E 001°29'0 0.2
2015-Sep-04 15:33N 51°49' E 001°29'0 0.1
2015-Sep-04 14:33N 51°49' E 001°29'0 0.0
2015-Sep-04 13:33N 51°49' E 001°29'0 0.0
2015-Sep-04 12:33N 51°49' E 001°29'0 0.0
2015-Sep-04 11:33N 51°49' E 001°29'0 0.1
2015-Sep-04 10:33N 51°49' E 001°29'0 0.1
2015-Sep-04 09:33N 51°49' E 001°30'0 0.1
2015-Sep-04 08:33N 51°49' E 001°30'0 0.0
2015-Sep-04 07:33N 51°49' E 001°30'5 5.2
2015-Sep-04 06:33N 51°49' E 001°38'10 9.7
2015-Sep-04 05:33N 51°58' E 001°46'10 9.6
2015-Sep-04 04:33N 52°05' E 001°57'1110.0
2015-Sep-04 03:27N 52°13' E 002°09'436 9.4
2015-Sep-02 05:14N 57°48' E 010°15'811.2
2015-Sep-02 04:33N 57°48' E 010°30'1111.4
2015-Sep-02 03:33N 57°49' E 010°51'1111.0
2015-Sep-02 02:33N 57°45' E 011°11'1110.6
2015-Sep-02 01:33N 57°39' E 011°27'9 8.5
2015-Sep-02 00:33N 57°39' E 011°43'6 5.6
2015-Sep-01 23:33N 57°41' E 011°52'0 0.0
2015-Sep-01 22:31N 57°41' E 011°52'0 0.0
2015-Sep-01 21:31N 57°41' E 011°52'0 0.0
2015-Sep-01 20:31N 57°41' E 011°52'0 0.0
2015-Sep-01 19:31N 57°41' E 011°52'0 0.0
2015-Sep-01 18:31N 57°41' E 011°52'0 0.0
2015-Sep-01 17:31N 57°41' E 011°52'0 0.0
2015-Sep-01 16:31N 57°41' E 011°52'0 0.0
2015-Sep-01 15:31N 57°41' E 011°52'0 0.0
2015-Sep-01 14:31N 57°41' E 011°52'0 0.0
2015-Sep-01 13:31N 57°41' E 011°52'0 0.0
2015-Sep-01 12:31N 57°41' E 011°52'0 0.0
2015-Sep-01 11:31N 57°41' E 011°52'0 0.0
2015-Sep-01 10:31N 57°41' E 011°52'0 0.0
2015-Sep-01 09:31N 57°41' E 011°52'0 0.0
2015-Sep-01 08:31N 57°41' E 011°52'0 0.0
2015-Sep-01 07:31N 57°41' E 011°52'0 0.0
2015-Sep-01 06:31N 57°41' E 011°52'0 0.0
2015-Sep-01 05:31N 57°41' E 011°52'0 0.0
2015-Sep-01 04:31N 57°41' E 011°52'0 0.0
2015-Sep-01 03:31N 57°41' E 011°52'0 0.0
2015-Sep-01 02:31N 57°41' E 011°52'0 0.0
2015-Sep-01 01:31N 57°41' E 011°52'0 0.0
2015-Sep-01 00:31N 57°41' E 011°52'0 0.0
2015-Aug-31 23:31N 57°41' E 011°52'0 0.0
2015-Aug-31 22:31N 57°41' E 011°52'0 0.2
2015-Aug-31 21:34N 57°41' E 011°52'8 8.0
2015-Aug-31 20:33N 57°36' E 011°40'4 3.6
2015-Aug-31 19:33N 57°33' E 011°38'0 0.0
2015-Aug-31 18:33N 57°33' E 011°38'0 0.0
2015-Aug-31 17:33N 57°33' E 011°38'0 0.0
2015-Aug-31 16:33N 57°33' E 011°38'0 0.0
2015-Aug-31 15:33N 57°33' E 011°38'0 0.0
2015-Aug-31 14:33N 57°33' E 011°39'0 0.0
2015-Aug-31 13:33N 57°33' E 011°39'0 0.0
2015-Aug-31 12:33N 57°33' E 011°39'0 0.0
2015-Aug-31 11:33N 57°33' E 011°39'0 0.0
2015-Aug-31 10:33N 57°33' E 011°39'0 0.0
2015-Aug-31 09:33N 57°33' E 011°39'0 0.0
2015-Aug-31 08:33N 57°33' E 011°39'0 0.0
2015-Aug-31 07:33N 57°33' E 011°39'0 0.0
2015-Aug-31 06:32N 57°33' E 011°39'0 0.0
2015-Aug-31 05:33N 57°33' E 011°39'0 0.0
2015-Aug-31 04:33N 57°33' E 011°39'0 0.0
2015-Aug-31 03:32N 57°33' E 011°39'0 0.0
2015-Aug-31 02:33N 57°33' E 011°39'0 0.0
2015-Aug-31 01:33N 57°33' E 011°39'0 0.0
2015-Aug-31 00:33N 57°33' E 011°39'0 0.0
2015-Aug-30 23:32N 57°33' E 011°39'0 0.0
2015-Aug-30 22:32N 57°33' E 011°39'0 0.0
2015-Aug-30 21:32N 57°33' E 011°39'0 0.0
2015-Aug-30 20:32N 57°33' E 011°39'0 0.0
2015-Aug-30 19:33N 57°33' E 011°39'0 0.0
2015-Aug-30 18:33N 57°33' E 011°39'0 0.0
2015-Aug-30 17:33N 57°33' E 011°39'0 0.0
2015-Aug-30 16:32N 57°33' E 011°39'0 0.0
2015-Aug-30 15:33N 57°33' E 011°39'0 0.0
2015-Aug-30 14:32N 57°33' E 011°39'0 0.0
2015-Aug-30 13:33N 57°33' E 011°39'0 0.0
2015-Aug-30 12:32N 57°33' E 011°39'0 0.0
2015-Aug-30 11:32N 57°33' E 011°39'0 0.0
2015-Aug-30 10:32N 57°33' E 011°39'0 0.0
2015-Aug-30 09:32N 57°33' E 011°39'0 0.0
2015-Aug-30 08:32N 57°33' E 011°39'0 0.0
2015-Aug-30 07:32N 57°33' E 011°39'0 0.0
2015-Aug-30 06:32N 57°33' E 011°39'0 0.0
2015-Aug-30 05:32N 57°33' E 011°39'0 0.0
2015-Aug-30 04:32N 57°33' E 011°39'0 0.0
2015-Aug-30 03:32N 57°33' E 011°39'1 1.1
2015-Aug-30 02:33N 57°34' E 011°37'1212.2
2015-Aug-30 01:33N 57°42' E 011°21'1312.9
2015-Aug-30 00:34N 57°51' E 011°04'1212.0
2015-Aug-29 23:33N 58°02' E 010°56'1211.6
2015-Aug-29 22:33N 58°13' E 010°50'1111.5
2015-Aug-29 21:33N 58°24' E 010°44'1111.1
2015-Aug-29 20:33N 58°35' E 010°38'1010.3
2015-Aug-29 19:33N 58°45' E 010°32'1110.5
2015-Aug-29 18:33N 58°55' E 010°34'1010.3
2015-Aug-29 17:34N 59°06' E 010°33'1111.0
2015-Aug-29 16:33N 59°17' E 010°34'3 3.2
2015-Aug-29 15:31N 59°20' E 010°31'0 0.0
2015-Aug-29 14:31N 59°20' E 010°31'0 0.0
2015-Aug-29 13:28N 59°20' E 010°31'0 0.0
2015-Aug-29 12:31N 59°20' E 010°31'0 0.0
2015-Aug-29 11:31N 59°20' E 010°31'0 0.0
2015-Aug-29 10:31N 59°20' E 010°31'0 0.0
2015-Aug-29 09:31N 59°20' E 010°31'0 0.0
2015-Aug-29 08:31N 59°20' E 010°31'0 0.0
2015-Aug-29 07:31N 59°20' E 010°31'0 0.0
2015-Aug-29 06:31N 59°20' E 010°31'0 0.0
2015-Aug-29 05:31N 59°20' E 010°31'0 0.0
2015-Aug-29 04:31N 59°20' E 010°31'0 0.0
2015-Aug-29 03:31N 59°20' E 010°31'0 0.0
2015-Aug-29 02:31N 59°20' E 010°31'0 0.0
2015-Aug-29 01:31N 59°20' E 010°31'0 0.0
2015-Aug-29 00:31N 59°20' E 010°31'0 0.0
2015-Aug-28 23:31N 59°20' E 010°31'0 0.0
2015-Aug-28 22:31N 59°20' E 010°31'0 0.0
2015-Aug-28 21:31N 59°20' E 010°31'0 0.0
2015-Aug-28 20:31N 59°20' E 010°31'0 0.0
2015-Aug-28 19:28N 59°20' E 010°31'0 0.5
2015-Aug-28 18:33N 59°20' E 010°31'0 0.0
2015-Aug-28 17:33N 59°20' E 010°31'0 0.0
2015-Aug-28 16:33N 59°20' E 010°31'0 0.0
2015-Aug-28 15:33N 59°20' E 010°31'0 0.0
2015-Aug-28 14:33N 59°20' E 010°31'0 0.0
2015-Aug-28 13:33N 59°20' E 010°31'0 0.0
2015-Aug-28 12:33N 59°20' E 010°31'0 0.0
2015-Aug-28 11:33N 59°20' E 010°31'0 0.0
2015-Aug-28 10:33N 59°20' E 010°31'0 0.0
2015-Aug-28 09:33N 59°20' E 010°31'0 0.0
2015-Aug-28 08:33N 59°20' E 010°31'0 0.0
2015-Aug-28 07:33N 59°20' E 010°31'0 0.0
2015-Aug-28 06:33N 59°20' E 010°31'0 0.0
2015-Aug-28 05:33N 59°20' E 010°31'0 0.1
2015-Aug-28 04:33N 59°20' E 010°31'0 0.0
2015-Aug-28 03:33N 59°20' E 010°31'0 0.0
2015-Aug-28 02:33N 59°20' E 010°31'0 0.0
2015-Aug-28 01:33N 59°20' E 010°31'0 0.0
2015-Aug-28 00:33N 59°20' E 010°31'0 0.0
2015-Aug-27 23:33N 59°20' E 010°31'1 0.6
2015-Aug-27 22:34N 59°20' E 010°32'1111.0
2015-Aug-27 21:34N 59°09' E 010°37'1111.5
2015-Aug-27 20:34N 58°58' E 010°33'1212.0
2015-Aug-27 19:31N 58°48' E 010°18'5211.6
2015-Aug-27 15:03N 58°06' E 009°21'612.2
2015-Aug-27 14:33N 58°01' E 009°14'3712.3
2015-Aug-27 11:34N 57°31' E 008°34'1312.4
2015-Aug-27 10:32N 57°20' E 008°21'  

Dump ship's entire track history